Time;durP1;ratioP1;P1;durP2;ratioP2;P2;SDS_P1;SDS_P2;PMS_P1;PMS_P2;Temp;Humidity;BMP_temperature;BMP_pressure;BME280_temperature;BME280_humidity;BME280_pressure;Samples;Min_cycle;Max_cycle;Signal;HPM_P1;HPM_P2
2023/03/16 00:00:08;;;;;;;;;;;18.40;45.90;;;;;;10368372;28;1053;-74
2023/03/16 00:05:04;;;;;;;;;;;18.40;45.90;;;;;;10369400;28;858;-74
2023/03/16 00:09:59;;;;;;;;;;;18.40;45.90;;;;;;10368349;28;1906;-74
2023/03/16 00:14:54;;;;;;;;;;;18.40;45.80;;;;;;10368816;28;883;-74
2023/03/16 00:19:53;;;;;;;;;;;18.50;45.80;;;;;;10368022;28;939;-74
2023/03/16 00:24:48;;;;;;;;;;;18.40;45.80;;;;;;10367869;28;876;-74
2023/03/16 00:29:47;;;;;;;;;;;18.40;45.80;;;;;;10368287;28;835;-74
2023/03/16 00:34:42;;;;;;;;;;;18.40;45.80;;;;;;10367425;28;938;-74
2023/03/16 00:39:37;;;;;;;;;;;18.40;45.80;;;;;;10367859;28;1191;-74
2023/03/16 00:44:33;;;;;;;;;;;18.40;45.80;;;;;;10367223;28;902;-73
2023/03/16 00:49:28;;;;;;;;;;;18.40;45.80;;;;;;10367023;28;871;-74
2023/03/16 00:54:25;;;;;;;;;;;18.40;45.80;;;;;;10366753;28;1909;-74
2023/03/16 00:59:21;;;;;;;;;;;18.30;45.70;;;;;;10366815;28;858;-73
2023/03/16 01:04:16;;;;;;;;;;;18.30;45.70;;;;;;10367468;28;819;-73
2023/03/16 01:09:12;;;;;;;;;;;18.30;45.80;;;;;;10367405;28;814;-74
2023/03/16 01:14:07;;;;;;;;;;;18.30;45.80;;;;;;10366241;28;1906;-73
2023/03/16 01:19:02;;;;;;;;;;;18.30;45.70;;;;;;10366263;28;823;-73
2023/03/16 01:23:58;;;;;;;;;;;18.30;45.70;;;;;;10366181;28;828;-74
2023/03/16 01:28:53;;;;;;;;;;;18.30;45.70;;;;;;10366665;28;819;-74
2023/03/16 01:33:49;;;;;;;;;;;18.30;45.70;;;;;;10366462;28;1902;-74
2023/03/16 01:38:44;;;;;;;;;;;18.30;45.70;;;;;;10365153;28;1346;-74
2023/03/16 01:43:39;;;;;;;;;;;18.30;45.70;;;;;;10367226;28;838;-74
2023/03/16 01:48:36;;;;;;;;;;;18.30;45.70;;;;;;10374163;28;929;-74
2023/03/16 01:53:32;;;;;;;;;;;18.30;45.60;;;;;;10374334;28;1982;-74
2023/03/16 01:58:27;;;;;;;;;;;18.30;45.70;;;;;;10373589;28;799;-75
2023/03/16 02:03:23;;;;;;;;;;;18.30;45.60;;;;;;10373548;28;827;-74
2023/03/16 02:08:18;;;;;;;;;;;18.30;45.70;;;;;;10373022;28;940;-74
2023/03/16 02:13:13;;;;;;;;;;;18.30;45.70;;;;;;10373825;28;1961;-74
2023/03/16 02:18:09;;;;;;;;;;;18.30;45.60;;;;;;10373430;28;920;-74
2023/03/16 02:23:05;;;;;;;;;;;18.30;45.60;;;;;;10373351;28;811;-74
2023/03/16 02:28:01;;;;;;;;;;;18.30;45.50;;;;;;10373043;28;888;-74
2023/03/16 02:32:56;;;;;;;;;;;18.20;45.60;;;;;;10372767;28;1902;-74
2023/03/16 02:37:51;;;;;;;;;;;18.20;45.50;;;;;;10371747;28;1178;-73
2023/03/16 02:42:47;;;;;;;;;;;18.30;45.60;;;;;;10372267;28;1160;-74
2023/03/16 02:47:42;;;;;;;;;;;18.20;45.60;;;;;;10371075;28;1082;-74
2023/03/16 02:52:38;;;;;;;;;;;18.20;45.60;;;;;;10371901;28;1913;-74
2023/03/16 02:57:33;;;;;;;;;;;18.30;45.70;;;;;;10369763;28;811;-74
2023/03/16 03:02:28;;;;;;;;;;;18.30;45.70;;;;;;10371135;28;913;-74
2023/03/16 03:07:30;;;;;;;;;;;18.20;45.60;;;;;;10370913;28;969;-74
2023/03/16 03:12:25;;;;;;;;;;;18.20;45.70;;;;;;10370814;28;1898;-74
2023/03/16 03:17:28;;;;;;;;;;;18.20;45.70;;;;;;10371144;28;810;-74
2023/03/16 03:22:25;;;;;;;;;;;18.20;46.20;;;;;;10370533;28;858;-74
2023/03/16 03:27:21;;;;;;;;;;;18.20;45.70;;;;;;10369483;28;901;-74
2023/03/16 03:32:16;;;;;;;;;;;18.20;45.70;;;;;;10369839;28;1961;-74
2023/03/16 03:37:11;;;;;;;;;;;18.20;45.60;;;;;;10369384;28;977;-74
2023/03/16 03:42:07;;;;;;;;;;;18.20;45.70;;;;;;10368979;28;1454;-74
2023/03/16 03:47:02;;;;;;;;;;;18.10;45.60;;;;;;10369344;28;831;-74
2023/03/16 03:51:58;;;;;;;;;;;18.10;45.70;;;;;;10369977;28;1906;-74
2023/03/16 03:56:53;;;;;;;;;;;18.10;45.60;;;;;;10368365;28;977;-74
2023/03/16 04:01:49;;;;;;;;;;;18.10;45.70;;;;;;10368759;28;772;-74
2023/03/16 04:06:44;;;;;;;;;;;18.10;45.70;;;;;;10368102;28;894;-74
2023/03/16 04:11:39;;;;;;;;;;;18.10;45.60;;;;;;10368882;28;1963;-74
2023/03/16 04:16:35;;;;;;;;;;;18.10;45.70;;;;;;10367575;28;1223;-73
2023/03/16 04:21:31;;;;;;;;;;;18.10;45.70;;;;;;10368131;28;786;-74
2023/03/16 04:26:26;;;;;;;;;;;18.10;45.70;;;;;;10368469;28;878;-74
2023/03/16 04:31:21;;;;;;;;;;;18.10;45.70;;;;;;10368960;28;1961;-73
2023/03/16 04:36:17;;;;;;;;;;;18.10;45.60;;;;;;10368131;28;846;-74
2023/03/16 04:41:12;;;;;;;;;;;18.10;45.70;;;;;;10367341;28;1279;-74
2023/03/16 04:46:07;;;;;;;;;;;18.10;45.60;;;;;;10367167;28;1176;-74
2023/03/16 04:51:03;;;;;;;;;;;18.00;45.70;;;;;;10366873;28;1902;-74
2023/03/16 04:55:58;;;;;;;;;;;18.00;45.60;;;;;;10366891;28;770;-74
2023/03/16 05:00:57;;;;;;;;;;;18.00;45.60;;;;;;10366669;28;862;-74
2023/03/16 05:05:52;;;;;;;;;;;18.00;45.70;;;;;;10366616;28;941;-73
2023/03/16 05:10:47;;;;;;;;;;;18.10;45.60;;;;;;10367269;28;1898;-73
2023/03/16 05:15:43;;;;;;;;;;;18.00;45.60;;;;;;10366396;28;920;-73
2023/03/16 05:20:38;;;;;;;;;;;18.10;45.60;;;;;;10366009;28;835;-74
2023/03/16 05:25:34;;;;;;;;;;;18.10;45.50;;;;;;10366136;28;902;-74
2023/03/16 05:30:30;;;;;;;;;;;18.10;45.60;;;;;;10366019;28;1956;-74
2023/03/16 05:35:26;;;;;;;;;;;18.10;45.50;;;;;;10366546;28;873;-74
2023/03/16 05:40:22;;;;;;;;;;;18.10;45.50;;;;;;10365945;28;1299;-74
2023/03/16 05:45:17;;;;;;;;;;;18.10;45.50;;;;;;10366356;28;784;-74
2023/03/16 05:50:13;;;;;;;;;;;18.10;45.40;;;;;;10366724;28;1973;-73
2023/03/16 05:55:08;;;;;;;;;;;18.10;45.40;;;;;;10365022;28;921;-73
2023/03/16 06:00:18;;;;;;;;;;;18.10;45.50;;;;;;10365480;28;952;-74
2023/03/16 06:05:13;;;;;;;;;;;18.10;45.40;;;;;;10366018;28;856;-74
2023/03/16 06:10:09;;;;;;;;;;;18.10;45.50;;;;;;10365288;28;1901;-74
2023/03/16 06:15:07;;;;;;;;;;;18.10;45.40;;;;;;10365991;28;888;-74
2023/03/16 06:20:04;;;;;;;;;;;18.10;45.40;;;;;;10365197;28;919;-75
2023/03/16 06:24:59;;;;;;;;;;;18.20;45.60;;;;;;10365019;28;869;-75
2023/03/16 06:29:55;;;;;;;;;;;18.20;45.70;;;;;;10365931;28;892;-75
2023/03/16 06:34:50;;;;;;;;;;;18.20;45.60;;;;;;10371544;28;1963;-76
2023/03/16 06:39:46;;;;;;;;;;;18.20;45.70;;;;;;10371442;28;1190;-75
2023/03/16 06:44:41;;;;;;;;;;;18.20;45.60;;;;;;10369023;28;1099;-73
2023/03/16 06:49:36;;;;;;;;;;;18.20;45.50;;;;;;10372077;28;887;-73
2023/03/16 06:54:34;;;;;;;;;;;18.20;45.60;;;;;;10370175;28;1906;-74
2023/03/16 06:59:30;;;;;;;;;;;18.10;45.30;;;;;;10398420;28;1001;-74
2023/03/16 07:04:25;;;;;;;;;;;18.20;45.30;;;;;;10412154;28;795;-75
2023/03/16 07:09:21;;;;;;;;;;;18.20;45.40;;;;;;10412300;28;933;-74
2023/03/16 07:14:18;;;;;;;;;;;18.20;45.60;;;;;;10411737;28;1960;-74
2023/03/16 07:19:13;;;;;;;;;;;18.20;45.70;;;;;;10411917;28;992;-75
2023/03/16 07:24:09;;;;;;;;;;;18.10;46.00;;;;;;10411208;28;1185;-75
2023/03/16 07:29:05;;;;;;;;;;;18.10;46.10;;;;;;10411051;28;841;-74
2023/03/16 07:34:01;;;;;;;;;;;18.10;46.10;;;;;;10412269;28;1951;-74
2023/03/16 07:38:56;;;;;;;;;;;18.20;46.30;;;;;;10411098;28;1225;-74
2023/03/16 07:43:52;;;;;;;;;;;18.30;47.30;;;;;;10409698;28;854;-74
2023/03/16 07:48:47;;;;;;;;;;;18.30;48.00;;;;;;10410843;28;862;-72
2023/03/16 07:53:43;;;;;;;;;;;18.30;48.50;;;;;;10410596;28;1914;-74
2023/03/16 07:58:38;;;;;;;;;;;18.30;48.90;;;;;;10410441;28;870;-73
2023/03/16 08:03:33;;;;;;;;;;;18.20;49.20;;;;;;10410883;28;830;-75
2023/03/16 08:08:29;;;;;;;;;;;18.30;48.40;;;;;;10409974;28;1074;-74
2023/03/16 08:13:26;;;;;;;;;;;18.30;48.80;;;;;;10410022;28;1969;-78
2023/03/16 08:18:22;;;;;;;;;;;18.20;48.50;;;;;;10409917;28;786;-72
2023/03/16 08:23:18;;;;;;;;;;;18.20;48.80;;;;;;10409577;28;870;-78
2023/03/16 08:28:13;;;;;;;;;;;18.30;48.40;;;;;;10409910;28;862;-70
2023/03/16 08:33:08;;;;;;;;;;;18.30;48.60;;;;;;10409140;28;1955;-73
2023/03/16 08:38:04;;;;;;;;;;;18.30;47.80;;;;;;10408928;28;783;-76
2023/03/16 08:43:00;;;;;;;;;;;18.30;48.10;;;;;;10409463;28;1222;-74
2023/03/16 08:47:55;;;;;;;;;;;18.30;48.40;;;;;;10409520;28;1783;-75
2023/03/16 08:52:51;;;;;;;;;;;18.30;48.30;;;;;;10408448;28;1976;-77
2023/03/16 08:57:47;;;;;;;;;;;18.30;48.40;;;;;;10408293;28;842;-76
2023/03/16 09:02:43;;;;;;;;;;;18.30;48.40;;;;;;10408891;28;818;-74
2023/03/16 09:07:38;;;;;;;;;;;18.20;48.20;;;;;;10407743;28;826;-74
2023/03/16 09:12:33;;;;;;;;;;;18.20;47.50;;;;;;10408470;28;1897;-79
2023/03/16 09:17:29;;;;;;;;;;;18.20;47.80;;;;;;10408364;28;866;-80
2023/03/16 09:22:24;;;;;;;;;;;18.10;47.80;;;;;;10407672;28;834;-80
2023/03/16 09:27:20;;;;;;;;;;;18.10;47.50;;;;;;10407632;28;811;-82
2023/03/16 09:32:15;;;;;;;;;;;18.10;47.50;;;;;;10406818;28;1902;-80
2023/03/16 09:37:11;;;;;;;;;;;18.00;47.30;;;;;;10407301;28;969;-79
2023/03/16 09:42:06;;;;;;;;;;;18.00;47.40;;;;;;10407375;28;1091;-81
2023/03/16 09:47:01;;;;;;;;;;;18.00;47.40;;;;;;10408490;28;882;-82
2023/03/16 09:51:57;;;;;;;;;;;17.90;47.30;;;;;;10407059;28;1971;-80
2023/03/16 09:56:52;;;;;;;;;;;17.90;47.30;;;;;;10407327;28;873;-82
2023/03/16 10:01:48;;;;;;;;;;;17.90;47.20;;;;;;10406805;28;898;-77
2023/03/16 10:06:43;;;;;;;;;;;18.00;46.80;;;;;;10410491;28;847;-79
2023/03/16 10:11:39;;;;;;;;;;;18.00;47.10;;;;;;10414674;28;1905;-78
2023/03/16 10:16:34;;;;;;;;;;;18.00;47.10;;;;;;10415187;28;952;-78
2023/03/16 10:21:29;;;;;;;;;;;17.90;47.10;;;;;;10414980;28;806;-77
2023/03/16 10:26:25;;;;;;;;;;;18.00;47.00;;;;;;10414174;28;771;-77
2023/03/16 10:31:20;;;;;;;;;;;18.00;47.00;;;;;;10414161;28;1909;-77
2023/03/16 10:36:16;;;;;;;;;;;18.00;47.10;;;;;;10413223;28;925;-77
2023/03/16 10:41:11;;;;;;;;;;;18.00;47.00;;;;;;10413676;28;1162;-77
2023/03/16 10:46:07;;;;;;;;;;;17.90;46.90;;;;;;10413363;28;890;-77
2023/03/16 10:51:02;;;;;;;;;;;18.00;46.90;;;;;;10412528;28;1968;-75
2023/03/16 10:55:57;;;;;;;;;;;18.00;46.90;;;;;;10401150;28;1086;-79
2023/03/16 11:00:53;;;;;;;;;;;18.00;47.40;;;;;;10370428;28;890;-79
2023/03/16 11:05:49;;;;;;;;;;;18.00;46.70;;;;;;10365119;28;1804;-81
2023/03/16 11:10:44;;;;;;;;;;;18.00;46.60;;;;;;10388146;28;1897;-79
2023/03/16 11:15:40;;;;;;;;;;;18.00;46.70;;;;;;10389233;28;877;-79
2023/03/16 11:20:35;;;;;;;;;;;18.00;46.60;;;;;;10411399;28;874;-79
2023/03/16 11:25:32;;;;;;;;;;;18.00;46.60;;;;;;10411760;28;872;-78
2023/03/16 11:30:28;;;;;;;;;;;18.00;46.50;;;;;;10412113;28;1901;-78
2023/03/16 11:35:23;;;;;;;;;;;17.90;46.40;;;;;;10411277;28;879;-78
2023/03/16 11:40:19;;;;;;;;;;;17.90;46.40;;;;;;10411560;28;1147;-79
2023/03/16 11:45:14;;;;;;;;;;;18.00;46.60;;;;;;10372913;28;1132;-78
2023/03/16 11:50:10;;;;;;;;;;;18.00;46.70;;;;;;10369409;28;787;-73
2023/03/16 11:55:06;;;;;;;;;;;18.00;46.60;;;;;;10369320;28;826;-79
2023/03/16 12:00:02;;;;;;;;;;;18.00;46.60;;;;;;10368929;28;946;-78
2023/03/16 12:04:58;;;;;;;;;;;18.00;46.60;;;;;;10368347;28;1105;-79
2023/03/16 12:09:54;;;;;;;;;;;17.90;46.50;;;;;;10368854;28;893;-78
2023/03/16 12:14:50;;;;;;;;;;;18.00;47.20;;;;;;10368881;28;1974;-79
2023/03/16 12:19:45;;;;;;;;;;;18.00;46.50;;;;;;10368776;28;949;-77
2023/03/16 12:24:41;;;;;;;;;;;18.00;46.60;;;;;;10368059;28;787;-80
2023/03/16 12:29:36;;;;;;;;;;;18.00;46.50;;;;;;10368204;28;814;-79
2023/03/16 12:34:32;;;;;;;;;;;18.00;46.70;;;;;;10367311;28;1902;-79
2023/03/16 12:39:28;;;;;;;;;;;18.00;46.40;;;;;;10367301;28;1324;-78
2023/03/16 12:44:24;;;;;;;;;;;18.10;46.40;;;;;;10367542;28;869;-86
2023/03/16 12:49:20;;;;;;;;;;;18.10;46.40;;;;;;10367806;28;855;-79
2023/03/16 12:54:15;;;;;;;;;;;18.10;46.40;;;;;;10367819;28;1980;-79
2023/03/16 12:59:11;;;;;;;;;;;18.10;46.20;;;;;;10366865;28;779;-79
2023/03/16 13:04:07;;;;;;;;;;;18.20;46.20;;;;;;10366880;28;865;-79
2023/03/16 13:09:03;;;;;;;;;;;18.20;46.20;;;;;;10367010;28;875;-79
2023/03/16 13:13:59;;;;;;;;;;;18.10;46.10;;;;;;10366271;28;1902;-79
2023/03/16 13:18:54;;;;;;;;;;;18.10;46.20;;;;;;10349044;28;1553;-79
2023/03/16 13:23:51;;;;;;;;;;;18.10;46.20;;;;;;10365901;28;869;-79
2023/03/16 13:28:46;;;;;;;;;;;18.10;46.30;;;;;;10365888;28;819;-78
2023/03/16 13:33:42;;;;;;;;;;;18.10;46.30;;;;;;10365391;28;1905;-78
2023/03/16 13:38:37;;;;;;;;;;;18.10;46.20;;;;;;10361533;28;1075;-78
2023/03/16 13:43:35;;;;;;;;;;;18.10;46.20;;;;;;10372639;28;1357;-79
2023/03/16 13:48:31;;;;;;;;;;;18.10;46.20;;;;;;10373128;28;966;-79
2023/03/16 13:53:27;;;;;;;;;;;18.10;46.20;;;;;;10373867;28;1975;-78
2023/03/16 13:58:23;;;;;;;;;;;18.20;46.10;;;;;;10373565;28;893;-83
2023/03/16 14:03:18;;;;;;;;;;;18.20;46.10;;;;;;10373522;28;896;-82
2023/03/16 14:08:14;;;;;;;;;;;18.30;46.00;;;;;;10373611;28;1016;-80
2023/03/16 14:13:09;;;;;;;;;;;18.40;45.90;;;;;;10372744;28;1910;-80
2023/03/16 14:18:06;;;;;;;;;;;18.60;45.80;;;;;;10372742;28;909;-83
2023/03/16 14:23:01;;;;;;;;;;;18.60;45.60;;;;;;10373194;28;868;-80
2023/03/16 14:27:56;;;;;;;;;;;18.70;45.70;;;;;;10372332;28;838;-82
2023/03/16 14:32:52;;;;;;;;;;;18.80;45.60;;;;;;10372839;28;1960;-81
2023/03/16 14:37:50;;;;;;;;;;;18.80;45.70;;;;;;10372643;28;1000;-78
2023/03/16 14:42:46;;;;;;;;;;;18.80;45.60;;;;;;10372030;28;1160;-78
2023/03/16 14:47:41;;;;;;;;;;;18.90;45.70;;;;;;10371875;28;870;-78
2023/03/16 14:52:36;;;;;;;;;;;18.90;45.70;;;;;;10371946;28;1914;-78
2023/03/16 14:57:33;;;;;;;;;;;18.90;45.60;;;;;;10371176;28;858;-78
2023/03/16 15:02:28;;;;;;;;;;;19.00;45.60;;;;;;10371392;28;881;-77
2023/03/16 15:07:24;;;;;;;;;;;19.00;45.70;;;;;;10369998;28;1273;-78
2023/03/16 15:12:19;;;;;;;;;;;19.00;45.70;;;;;;10370397;28;1902;-79
2023/03/16 15:17:15;;;;;;;;;;;19.00;45.70;;;;;;10370249;28;967;-78
2023/03/16 15:22:11;;;;;;;;;;;19.00;45.60;;;;;;10370221;28;964;-79
2023/03/16 15:27:06;;;;;;;;;;;19.10;45.60;;;;;;10370667;28;798;-78
2023/03/16 15:32:01;;;;;;;;;;;19.10;45.60;;;;;;10370354;28;1898;-78
2023/03/16 15:36:57;;;;;;;;;;;19.10;45.50;;;;;;10369310;28;1057;-78
2023/03/16 15:41:52;;;;;;;;;;;19.10;45.50;;;;;;10368888;28;1459;-80
2023/03/16 15:46:48;;;;;;;;;;;19.20;45.70;;;;;;10369890;28;839;-79
2023/03/16 15:51:43;;;;;;;;;;;19.20;46.30;;;;;;10369608;28;1905;-78
2023/03/16 15:56:40;;;;;;;;;;;19.20;45.60;;;;;;10368989;28;770;-78
2023/03/16 16:01:37;;;;;;;;;;;19.20;45.60;;;;;;10368343;28;799;-78
2023/03/16 16:06:32;;;;;;;;;;;19.10;45.70;;;;;;10400547;28;980;-80
2023/03/16 16:11:27;;;;;;;;;;;19.10;45.60;;;;;;10409384;28;1906;-78
2023/03/16 16:16:23;;;;;;;;;;;19.00;45.70;;;;;;10409284;28;890;-75
2023/03/16 16:21:20;;;;;;;;;;;18.90;45.80;;;;;;10409965;28;913;-80
2023/03/16 16:26:15;;;;;;;;;;;18.80;45.90;;;;;;10410132;28;885;-78
2023/03/16 16:31:10;;;;;;;;;;;18.80;45.90;;;;;;10408953;28;1968;-79
2023/03/16 16:36:06;;;;;;;;;;;18.80;46.00;;;;;;10409436;28;865;-78
2023/03/16 16:41:01;;;;;;;;;;;18.70;46.00;;;;;;10408256;28;1100;-84
2023/03/16 16:45:57;;;;;;;;;;;18.70;46.00;;;;;;10408373;28;768;-78
2023/03/16 16:50:52;;;;;;;;;;;18.80;45.90;;;;;;10408836;28;1917;-80
2023/03/16 16:55:47;;;;;;;;;;;18.70;46.10;;;;;;10408759;28;842;-84
2023/03/16 17:00:43;;;;;;;;;;;18.70;46.20;;;;;;10408664;28;866;-78
2023/03/16 17:05:39;;;;;;;;;;;18.70;46.20;;;;;;10407225;28;944;-79
2023/03/16 17:10:36;;;;;;;;;;;18.70;46.10;;;;;;10407525;28;1913;-82
2023/03/16 17:15:32;;;;;;;;;;;18.60;46.10;;;;;;10407389;28;763;-78
2023/03/16 17:20:28;;;;;;;;;;;18.60;46.10;;;;;;10407494;28;929;-78
2023/03/16 17:25:23;;;;;;;;;;;18.60;46.10;;;;;;10408047;28;1007;-78
2023/03/16 17:30:19;;;;;;;;;;;18.50;46.00;;;;;;10407906;28;998;-78
2023/03/16 17:35:14;;;;;;;;;;;18.50;46.00;;;;;;10407065;28;1890;-80
2023/03/16 17:40:10;;;;;;;;;;;18.60;46.00;;;;;;10407395;28;1099;-90
2023/03/16 17:45:06;;;;;;;;;;;18.50;45.90;;;;;;10407778;28;897;-82
2023/03/16 17:50:01;;;;;;;;;;;18.50;46.00;;;;;;10407607;28;839;-79
2023/03/16 17:54:56;;;;;;;;;;;18.50;45.90;;;;;;10406208;28;1959;-78
2023/03/16 17:59:52;;;;;;;;;;;18.50;45.90;;;;;;10406845;28;880;-80
2023/03/16 18:04:47;;;;;;;;;;;18.50;46.00;;;;;;10406813;28;965;-79
2023/03/16 18:09:43;;;;;;;;;;;18.50;45.90;;;;;;10406359;28;914;-78
2023/03/16 18:14:40;;;;;;;;;;;18.50;45.90;;;;;;10406082;28;1902;-79
2023/03/16 18:19:36;;;;;;;;;;;18.50;45.90;;;;;;10406242;28;902;-78
2023/03/16 18:24:32;;;;;;;;;;;18.40;45.90;;;;;;10405493;28;1346;-78
2023/03/16 18:29:27;;;;;;;;;;;18.50;45.80;;;;;;10412981;28;810;-78
2023/03/16 18:34:23;;;;;;;;;;;18.50;45.80;;;;;;10414173;28;1961;-75
2023/03/16 18:39:19;;;;;;;;;;;18.50;45.80;;;;;;10413573;28;1460;-74
2023/03/16 18:44:14;;;;;;;;;;;18.50;45.80;;;;;;10413803;28;795;-73
2023/03/16 18:49:10;;;;;;;;;;;18.50;45.80;;;;;;10412722;28;815;-77
2023/03/16 18:54:05;;;;;;;;;;;18.50;45.70;;;;;;10412761;28;1968;-76
2023/03/16 18:59:02;;;;;;;;;;;18.50;45.60;;;;;;10412622;28;1112;-76
2023/03/16 19:03:57;;;;;;;;;;;18.50;45.60;;;;;;10413277;28;893;-76
2023/03/16 19:08:53;;;;;;;;;;;18.50;45.60;;;;;;10412340;28;777;-84
2023/03/16 19:13:50;;;;;;;;;;;18.50;45.60;;;;;;10412369;28;1914;-90
2023/03/16 19:18:46;;;;;;;;;;;18.50;45.60;;;;;;10412766;28;866;-76
2023/03/16 19:23:41;;;;;;;;;;;18.50;45.60;;;;;;10412084;28;830;-76
2023/03/16 19:28:37;;;;;;;;;;;18.50;45.60;;;;;;10413152;28;880;-78
2023/03/16 19:33:33;;;;;;;;;;;18.50;45.60;;;;;;10411571;28;1976;-74
2023/03/16 19:38:28;;;;;;;;;;;18.50;45.60;;;;;;10410493;28;784;-74
2023/03/16 19:43:24;;;;;;;;;;;18.40;45.10;;;;;;10411247;28;1417;-74
2023/03/16 19:48:19;;;;;;;;;;;18.50;45.00;;;;;;10412076;28;877;-72
2023/03/16 19:53:16;;;;;;;;;;;18.50;45.10;;;;;;10411422;28;1913;-73
2023/03/16 19:58:11;;;;;;;;;;;18.50;45.00;;;;;;10410684;28;945;-73
2023/03/16 20:03:06;;;;;;;;;;;18.50;45.00;;;;;;10409936;28;866;-75
2023/03/16 20:08:02;;;;;;;;;;;18.50;44.90;;;;;;10410908;28;826;-75
2023/03/16 20:12:57;;;;;;;;;;;18.50;44.90;;;;;;10409875;28;1905;-74
2023/03/16 20:17:53;;;;;;;;;;;18.50;44.90;;;;;;10410252;28;825;-75
2023/03/16 20:22:48;;;;;;;;;;;18.50;44.90;;;;;;10410197;28;822;-79
2023/03/16 20:27:43;;;;;;;;;;;18.60;44.90;;;;;;10410107;28;795;-81
2023/03/16 20:32:41;;;;;;;;;;;18.50;44.80;;;;;;10409298;28;1949;-75
2023/03/16 20:37:36;;;;;;;;;;;18.60;44.90;;;;;;10409206;28;888;-75
2023/03/16 20:42:32;;;;;;;;;;;18.70;45.10;;;;;;10409406;28;1186;-75
2023/03/16 20:47:27;;;;;;;;;;;18.70;45.00;;;;;;10408932;28;899;-92
2023/03/16 20:52:23;;;;;;;;;;;18.60;45.10;;;;;;10408386;28;1973;-89
2023/03/16 20:57:18;;;;;;;;;;;18.50;45.30;;;;;;10409137;28;893;-89
2023/03/16 21:02:14;;;;;;;;;;;18.50;45.30;;;;;;10408949;28;888;-87
2023/03/16 21:07:09;;;;;;;;;;;18.50;45.40;;;;;;10409456;28;842;-81
2023/03/16 21:12:08;;;;;;;;;;;18.40;45.50;;;;;;10407434;28;1895;-86
2023/03/16 21:17:03;;;;;;;;;;;18.40;45.30;;;;;;10408223;28;861;-87
2023/03/16 21:21:58;;;;;;;;;;;18.40;45.40;;;;;;10408462;28;874;-86
2023/03/16 21:26:54;;;;;;;;;;;18.40;45.20;;;;;;10407761;28;917;-87
2023/03/16 21:31:50;;;;;;;;;;;18.40;45.30;;;;;;10408263;28;1905;-84
2023/03/16 21:36:45;;;;;;;;;;;18.40;45.20;;;;;;10407893;28;845;-85
2023/03/16 21:41:41;;;;;;;;;;;18.40;45.20;;;;;;10407960;28;1103;-84
2023/03/16 21:46:37;;;;;;;;;;;18.40;45.30;;;;;;10406999;28;771;-88
2023/03/16 21:51:33;;;;;;;;;;;18.40;45.20;;;;;;10406880;28;1959;-89
2023/03/16 21:56:29;;;;;;;;;;;18.40;45.30;;;;;;10407798;28;846;-89
2023/03/16 22:01:24;;;;;;;;;;;18.40;45.30;;;;;;10409710;28;790;-89
2023/03/16 22:06:20;;;;;;;;;;;18.40;45.30;;;;;;10415832;28;862;-89
2023/03/16 22:11:15;;;;;;;;;;;18.40;45.40;;;;;;10414712;28;1950;-88
2023/03/16 22:16:11;;;;;;;;;;;18.40;45.40;;;;;;10414080;28;835;-89
2023/03/16 22:21:06;;;;;;;;;;;18.40;45.40;;;;;;10414380;28;893;-89
2023/03/16 22:26:01;;;;;;;;;;;18.40;45.50;;;;;;10413826;28;854;-85
2023/03/16 22:30:57;;;;;;;;;;;18.30;45.40;;;;;;10414764;28;1952;-89
2023/03/16 22:35:52;;;;;;;;;;;18.40;45.40;;;;;;10414656;28;811;-89
2023/03/16 22:40:48;;;;;;;;;;;18.40;45.40;;;;;;10413597;28;1504;-89
2023/03/16 22:45:43;;;;;;;;;;;18.40;45.40;;;;;;10413001;28;1506;-89
2023/03/16 22:50:38;;;;;;;;;;;18.30;45.40;;;;;;10414080;28;1926;-88
2023/03/16 22:55:34;;;;;;;;;;;18.40;45.40;;;;;;10413290;28;796;-89
2023/03/16 23:00:30;;;;;;;;;;;18.40;45.50;;;;;;10413022;28;889;-89
2023/03/16 23:05:25;;;;;;;;;;;18.30;45.40;;;;;;10413505;28;900;-88
2023/03/16 23:10:21;;;;;;;;;;;18.30;45.40;;;;;;10413025;28;949;-88
2023/03/16 23:15:17;;;;;;;;;;;18.30;45.40;;;;;;10413017;28;1959;-89
2023/03/16 23:20:12;;;;;;;;;;;18.30;45.40;;;;;;10412243;28;872;-89
2023/03/16 23:25:07;;;;;;;;;;;18.30;45.40;;;;;;10412141;28;779;-89
2023/03/16 23:30:03;;;;;;;;;;;18.30;45.40;;;;;;10412570;28;872;-88
2023/03/16 23:34:58;;;;;;;;;;;18.30;45.40;;;;;;10411016;28;1957;-88
2023/03/16 23:39:54;;;;;;;;;;;18.30;45.30;;;;;;10411041;28;1266;-89
2023/03/16 23:44:49;;;;;;;;;;;18.30;45.30;;;;;;10411294;28;886;-89
2023/03/16 23:49:44;;;;;;;;;;;18.30;45.20;;;;;;10411079;28;961;-89
2023/03/16 23:54:40;;;;;;;;;;;18.30;45.30;;;;;;10411438;28;1971;-88
2023/03/16 23:59:35;;;;;;;;;;;18.30;45.20;;;;;;10411807;28;835;-89
